Time;durP1;ratioP1;P1;durP2;ratioP2;P2;SDS_P1;SDS_P2;PMS_P1;PMS_P2;Temp;Humidity;BMP_temperature;BMP_pressure;BME280_temperature;BME280_humidity;BME280_pressure;Samples;Min_cycle;Max_cycle;Signal;HPM_P1;HPM_P2
2021/04/18 00:02:15;;;;;;;6.03;3.40;;;;;;;6.62;100.00;102671.87;1764286;81;26278;-81
2021/04/18 00:04:44;;;;;;;6.30;2.60;;;;;;;6.69;100.00;102668.02;1764277;81;26280;-81
2021/04/18 00:07:17;;;;;;;5.83;2.63;;;;;;;6.84;100.00;102667.80;1764286;81;26278;-80
2021/04/18 00:09:47;;;;;;;3.73;2.70;;;;;;;6.61;100.00;102666.02;1764367;81;26234;-80
2021/04/18 00:12:17;;;;;;;4.37;2.40;;;;;;;6.42;100.00;102670.48;1764348;81;26225;-80
2021/04/18 00:14:46;;;;;;;2.47;1.67;;;;;;;6.46;100.00;102669.55;1764384;81;26280;-80
2021/04/18 00:17:16;;;;;;;3.03;2.13;;;;;;;6.31;100.00;102671.14;1764308;81;26249;-80
2021/04/18 00:19:46;;;;;;;3.53;2.70;;;;;;;6.33;100.00;102674.55;1764203;81;26754;-80
2021/04/18 00:22:16;;;;;;;3.17;2.40;;;;;;;6.38;100.00;102674.20;1764186;81;26316;-79
2021/04/18 00:24:46;;;;;;;3.13;2.03;;;;;;;6.39;100.00;102668.16;1764239;81;26310;-79
2021/04/18 00:27:16;;;;;;;3.77;1.97;;;;;;;6.24;100.00;102673.06;1764340;81;26319;-79
2021/04/18 00:29:46;;;;;;;3.47;2.00;;;;;;;6.44;100.00;102663.38;1764144;81;26234;-79
2021/04/18 00:32:16;;;;;;;2.40;1.70;;;;;;;6.18;100.00;102658.19;1764298;81;26728;-79
2021/04/18 00:34:45;;;;;;;3.77;1.90;;;;;;;6.23;100.00;102656.18;1764417;81;26234;-80
2021/04/18 00:37:15;;;;;;;1.83;1.63;;;;;;;6.21;100.00;102650.86;1764242;81;26237;-80
2021/04/18 00:39:46;;;;;;;1.97;1.60;;;;;;;6.06;100.00;102649.38;1764216;81;26328;-79
2021/04/18 00:42:15;;;;;;;2.27;1.43;;;;;;;6.15;100.00;102646.73;1764274;81;26771;-80
2021/04/18 00:44:45;;;;;;;4.37;1.90;;;;;;;6.07;100.00;102643.67;1764209;81;26233;-80
2021/04/18 00:47:17;;;;;;;2.30;1.77;;;;;;;5.84;100.00;102643.17;1764159;81;26254;-81
2021/04/18 00:49:47;;;;;;;4.00;1.90;;;;;;;5.90;100.00;102642.38;1764245;81;26312;-81
2021/04/18 00:52:17;;;;;;;3.43;1.70;;;;;;;5.86;100.00;102646.59;1764391;81;26308;-81
2021/04/18 00:54:47;;;;;;;1.83;1.37;;;;;;;5.91;100.00;102639.92;1764439;81;26393;-81
2021/04/18 00:57:17;;;;;;;3.73;1.70;;;;;;;6.10;100.00;102641.85;1764353;81;26233;-80
2021/04/18 00:59:47;;;;;;;4.53;1.43;;;;;;;5.80;100.00;102640.52;1764402;80;26320;-81
2021/04/18 01:02:17;;;;;;;2.10;1.80;;;;;;;5.54;100.00;102643.22;1764277;81;26340;-81
2021/04/18 01:04:48;;;;;;;2.70;1.67;;;;;;;5.50;100.00;102632.63;1764327;81;26327;-81
2021/04/18 01:07:18;;;;;;;2.90;1.97;;;;;;;5.42;100.00;102631.44;1764154;81;26237;-80
2021/04/18 01:09:48;;;;;;;1.87;1.40;;;;;;;5.45;100.00;102628.78;1764288;81;26305;-80
2021/04/18 01:12:19;;;;;;;2.63;1.60;;;;;;;5.40;100.00;102628.02;1764287;81;26222;-79
2021/04/18 01:14:48;;;;;;;3.70;1.90;;;;;;;5.32;100.00;102625.98;1764308;81;26242;-80
2021/04/18 01:17:18;;;;;;;3.17;1.70;;;;;;;5.36;100.00;102623.13;1764208;81;26301;-79
2021/04/18 01:19:48;;;;;;;3.10;1.67;;;;;;;5.52;100.00;102609.52;1764166;81;26229;-79
2021/04/18 01:22:18;;;;;;;3.87;1.63;;;;;;;5.38;100.00;102615.52;1764280;81;26225;-79
2021/04/18 01:24:48;;;;;;;1.83;1.63;;;;;;;5.30;100.00;102615.19;1764308;81;26314;-79
2021/04/18 01:27:20;;;;;;;3.07;1.57;;;;;;;5.27;100.00;102610.07;1764256;81;26681;-80
2021/04/18 01:29:49;;;;;;;3.57;1.80;;;;;;;5.21;100.00;102610.06;1764361;81;26323;-79
2021/04/18 01:32:22;;;;;;;2.07;1.80;;;;;;;5.11;100.00;102611.83;1764118;81;26762;-79
2021/04/18 01:34:52;;;;;;;3.30;2.47;;;;;;;4.76;100.00;102603.30;1764202;81;26705;-79
2021/04/18 01:37:22;;;;;;;3.23;1.57;;;;;;;4.72;100.00;102593.74;1764280;81;26230;-79
2021/04/18 01:39:53;;;;;;;1.90;1.47;;;;;;;4.65;100.00;102599.23;1764250;81;26245;-79
2021/04/18 01:42:24;;;;;;;1.80;1.50;;;;;;;4.62;100.00;102591.91;1764236;81;26238;-80
2021/04/18 01:44:54;;;;;;;2.00;1.50;;;;;;;4.73;100.00;102598.20;1764419;81;26604;-80
2021/04/18 01:47:24;;;;;;;3.43;1.63;;;;;;;4.48;100.00;102598.72;1764414;81;26682;-79
2021/04/18 01:49:54;;;;;;;3.00;1.43;;;;;;;4.38;100.00;102597.36;1764371;81;26318;-80
2021/04/18 01:52:24;;;;;;;4.60;1.90;;;;;;;4.31;100.00;102595.95;1764290;81;26720;-80
2021/04/18 01:54:54;;;;;;;3.67;1.43;;;;;;;4.31;100.00;102594.58;1764355;81;26674;-80
2021/04/18 01:57:24;;;;;;;6.73;2.20;;;;;;;4.19;100.00;102592.06;1764347;81;26312;-81
2021/04/18 01:59:53;;;;;;;4.80;1.60;;;;;;;4.15;100.00;102584.41;1764263;81;26237;-80
2021/04/18 02:02:23;;;;;;;2.50;1.53;;;;;;;4.25;100.00;102591.77;1764249;80;26815;-80
2021/04/18 02:04:55;;;;;;;2.53;1.80;;;;;;;4.46;100.00;102594.45;1764264;81;26758;-80
2021/04/18 02:07:25;;;;;;;3.57;1.50;;;;;;;4.39;100.00;102594.94;1764262;81;26301;-80
2021/04/18 02:09:55;;;;;;;6.80;1.80;;;;;;;4.20;100.00;102587.39;1764383;81;26448;-80
2021/04/18 02:12:25;;;;;;;3.43;1.70;;;;;;;4.06;100.00;102589.22;1764216;81;26293;-80
2021/04/18 02:14:56;;;;;;;2.50;1.87;;;;;;;4.09;100.00;102579.18;1764249;81;26308;-81
2021/04/18 02:17:26;;;;;;;2.50;1.50;;;;;;;3.90;100.00;102588.11;1764327;81;26222;-80
2021/04/18 02:19:55;;;;;;;4.20;1.93;;;;;;;4.05;100.00;102588.88;1764306;81;26319;-80
2021/04/18 02:22:25;;;;;;;2.53;1.40;;;;;;;4.17;100.00;102590.03;1764299;81;26229;-80
2021/04/18 02:24:55;;;;;;;3.93;2.30;;;;;;;4.00;100.00;102585.35;1764397;81;26700;-80
2021/04/18 02:27:26;;;;;;;3.67;1.70;;;;;;;4.08;100.00;102587.09;1764188;81;26293;-80
2021/04/18 02:29:57;;;;;;;4.73;2.00;;;;;;;4.23;100.00;102586.48;1764214;81;26309;-80
2021/04/18 02:32:28;;;;;;;3.13;1.90;;;;;;;4.22;100.00;102590.28;1764489;81;26391;-80
2021/04/18 02:34:58;;;;;;;2.93;1.63;;;;;;;3.90;100.00;102590.34;1764260;81;26245;-80
2021/04/18 02:37:27;;;;;;;5.30;2.20;;;;;;;4.03;100.00;102595.09;1764361;81;26397;-81
2021/04/18 02:39:57;;;;;;;4.97;2.13;;;;;;;4.22;100.00;102593.55;1764454;81;26676;-81
2021/04/18 02:42:27;;;;;;;4.73;1.90;;;;;;;4.09;100.00;102592.94;1764295;81;26245;-78
2021/04/18 02:44:57;;;;;;;3.63;1.83;;;;;;;3.99;100.00;102589.15;1764251;81;26304;-78
2021/04/18 02:47:27;;;;;;;4.63;2.13;;;;;;;3.87;100.00;102596.24;1764282;81;26342;-79
2021/04/18 02:49:56;;;;;;;4.93;1.70;;;;;;;3.66;100.00;102601.23;1764477;81;26316;-79
2021/04/18 02:52:26;;;;;;;3.87;1.60;;;;;;;3.27;100.00;102609.06;1764364;81;26303;-78
2021/04/18 02:54:56;;;;;;;3.60;1.80;;;;;;;3.06;100.00;102597.53;1764312;81;26241;-79
2021/04/18 02:57:26;;;;;;;6.83;2.20;;;;;;;3.18;100.00;102602.84;1764359;81;26238;-79
2021/04/18 02:59:56;;;;;;;2.60;2.13;;;;;;;3.30;100.00;102591.33;1764310;81;26230;-79
2021/04/18 03:02:26;;;;;;;5.60;2.23;;;;;;;3.36;100.00;102594.16;1764120;80;26790;-79
2021/04/18 03:04:57;;;;;;;4.03;1.97;;;;;;;3.40;100.00;102599.59;1764325;81;26674;-79
2021/04/18 03:07:27;;;;;;;3.90;1.90;;;;;;;3.26;100.00;102609.24;1764559;81;26699;-79
2021/04/18 03:09:57;;;;;;;3.80;1.80;;;;;;;3.86;100.00;102601.92;1764364;81;26709;-79
2021/04/18 03:12:27;;;;;;;3.27;2.00;;;;;;;3.56;100.00;102604.83;1764259;81;26296;-79
2021/04/18 03:14:56;;;;;;;3.83;1.97;;;;;;;3.34;100.00;102609.97;1764321;81;26673;-79
2021/04/18 03:17:26;;;;;;;5.27;2.07;;;;;;;3.23;100.00;102613.77;1764385;81;26771;-79
2021/04/18 03:19:56;;;;;;;5.03;2.07;;;;;;;3.23;100.00;102607.75;1764433;81;26333;-79
2021/04/18 03:22:27;;;;;;;7.17;2.10;;;;;;;3.32;100.00;102611.23;1764274;81;26214;-79
2021/04/18 03:24:56;;;;;;;7.50;2.27;;;;;;;3.32;100.00;102603.84;1764298;81;26381;-80
2021/04/18 03:27:26;;;;;;;4.67;2.27;;;;;;;3.15;100.00;102602.38;1764234;81;26331;-80
2021/04/18 03:29:56;;;;;;;4.67;2.00;;;;;;;3.13;100.00;102601.70;1764369;81;26696;-79
2021/04/18 03:32:43;;;;;;;4.23;2.40;;;;;;;3.13;100.00;102603.08;1737253;82;33997;-79
2021/04/18 03:35:15;;;;;;;4.53;2.50;;;;;;;3.03;100.00;102605.30;1758764;81;26716;-79
2021/04/18 03:37:45;;;;;;;5.37;2.13;;;;;;;2.99;100.00;102607.59;1758830;81;26375;-79
2021/04/18 03:40:16;;;;;;;5.70;2.57;;;;;;;2.87;100.00;102606.91;1758813;81;26289;-78
2021/04/18 03:42:46;;;;;;;4.87;2.20;;;;;;;2.71;100.00;102606.05;1758699;81;26810;-79
2021/04/18 03:45:17;;;;;;;5.57;2.20;;;;;;;2.70;100.00;102601.59;1758727;81;26249;-78
2021/04/18 03:47:47;;;;;;;5.57;2.63;;;;;;;2.77;100.00;102596.22;1758654;81;26335;-79
2021/04/18 03:50:17;;;;;;;4.23;2.60;;;;;;;2.78;100.00;102595.70;1758796;81;26315;-78
2021/04/18 03:52:48;;;;;;;5.77;2.30;;;;;;;2.80;100.00;102590.33;1758732;81;26350;-79
2021/04/18 03:55:18;;;;;;;4.20;2.20;;;;;;;2.84;100.00;102591.65;1758667;81;26714;-78
2021/04/18 03:57:48;;;;;;;5.93;2.50;;;;;;;2.64;100.00;102589.18;1758667;81;26301;-78
2021/04/18 04:00:20;;;;;;;4.53;2.52;;;;;;;2.85;100.00;102589.24;1749693;80;932704;-78
2021/04/18 04:02:50;;;;;;;7.90;4.37;;;;;;;2.88;100.00;102579.24;1789006;79;26356;-78
2021/04/18 04:05:20;;;;;;;8.57;4.27;;;;;;;3.02;100.00;102581.63;1816970;79;26251;-78
2021/04/18 04:07:50;;;;;;;7.97;4.20;;;;;;;3.06;100.00;102585.17;1814224;79;26242;-78
2021/04/18 04:10:20;;;;;;;6.00;3.93;;;;;;;3.13;100.00;102572.87;1816726;79;26667;-79
2021/04/18 04:12:50;;;;;;;4.60;3.03;;;;;;;3.04;100.00;102576.27;1814212;79;26219;-79
2021/04/18 04:15:20;;;;;;;7.20;4.20;;;;;;;3.05;100.00;102575.75;1816704;79;26226;-79
2021/04/18 04:17:50;;;;;;;9.73;5.07;;;;;;;3.28;100.00;102572.33;1814143;79;26290;-79
2021/04/18 04:20:20;;;;;;;7.70;4.50;;;;;;;3.05;100.00;102571.63;1816812;79;26219;-79
2021/04/18 04:22:50;;;;;;;9.07;4.53;;;;;;;2.78;100.00;102577.34;1814271;79;26678;-79
2021/04/18 04:25:20;;;;;;;7.10;4.57;;;;;;;2.64;100.00;102576.31;1816868;78;26273;-79
2021/04/18 04:27:50;;;;;;;8.87;4.30;;;;;;;2.73;100.00;102579.28;1814270;79;26307;-80
2021/04/18 04:30:20;;;;;;;6.10;3.70;;;;;;;2.79;100.00;102580.39;1816789;79;26219;-80
2021/04/18 04:32:50;;;;;;;6.77;3.60;;;;;;;2.67;100.00;102587.41;1814188;79;26280;-79
2021/04/18 04:35:21;;;;;;;7.67;3.83;;;;;;;2.54;100.00;102584.49;1816876;79;26262;-79
2021/04/18 04:37:51;;;;;;;7.20;3.97;;;;;;;2.30;100.00;102581.53;1814186;79;26324;-79
2021/04/18 04:40:21;;;;;;;7.67;4.20;;;;;;;2.32;100.00;102589.55;1816767;79;26313;-79
2021/04/18 04:42:51;;;;;;;5.07;3.57;;;;;;;2.14;100.00;102586.65;1814266;79;26304;-79
2021/04/18 04:45:21;;;;;;;5.40;3.93;;;;;;;2.21;100.00;102590.36;1816743;79;26662;-79
2021/04/18 04:47:51;;;;;;;5.83;3.37;;;;;;;2.25;100.00;102585.34;1814194;79;26277;-79
2021/04/18 04:50:21;;;;;;;6.40;3.73;;;;;;;2.27;100.00;102595.08;1816716;79;26214;-79
2021/04/18 04:52:52;;;;;;;5.73;4.00;;;;;;;2.33;100.00;102592.63;1814295;79;26246;-79
2021/04/18 04:55:22;;;;;;;6.17;3.67;;;;;;;2.24;100.00;102598.72;1816696;79;26292;-79
2021/04/18 04:57:52;;;;;;;7.27;3.83;;;;;;;2.35;100.00;102590.56;1814145;79;26215;-78
2021/04/18 05:00:24;;;;;;;4.70;3.90;;;;;;;2.31;100.00;102592.80;1816739;79;26211;-78
2021/04/18 05:02:54;;;;;;;6.53;3.87;;;;;;;2.37;100.00;102596.17;1814143;78;26270;-79
2021/04/18 05:05:24;;;;;;;5.40;3.60;;;;;;;2.26;100.00;102596.66;1816893;79;26757;-79
2021/04/18 05:07:53;;;;;;;4.73;3.57;;;;;;;2.32;100.00;102597.77;1814147;79;26678;-79
2021/04/18 05:10:24;;;;;;;6.90;3.37;;;;;;;2.16;100.00;102601.55;1816742;79;26650;-79
2021/04/18 05:12:54;;;;;;;4.47;3.63;;;;;;;2.21;100.00;102602.70;1814213;79;26774;-79
2021/04/18 05:15:24;;;;;;;4.87;3.30;;;;;;;2.20;100.00;102605.61;1816801;79;26255;-78
2021/04/18 05:17:54;;;;;;;5.33;3.90;;;;;;;2.03;100.00;102599.45;1814367;79;26638;-79
2021/04/18 05:20:24;;;;;;;6.27;3.63;;;;;;;1.88;100.00;102617.77;1816884;79;26304;-79
2021/04/18 05:22:55;;;;;;;7.97;3.80;;;;;;;1.89;100.00;102614.48;1814262;79;26292;-79
2021/04/18 05:25:25;;;;;;;5.93;3.37;;;;;;;1.82;100.00;102604.79;1816848;79;26288;-79
2021/04/18 05:27:55;;;;;;;3.37;2.67;;;;;;;1.78;100.00;102609.80;1814292;79;26308;-79
2021/04/18 05:30:26;;;;;;;7.83;3.43;;;;;;;1.97;100.00;102609.77;1817063;79;26270;-79
2021/04/18 05:32:56;;;;;;;5.83;3.87;;;;;;;1.92;100.00;102620.47;1814412;79;26211;-78
2021/04/18 05:35:26;;;;;;;5.43;3.00;;;;;;;2.01;100.00;102615.77;1816849;79;26808;-78
2021/04/18 05:37:56;;;;;;;6.40;2.73;;;;;;;1.97;100.00;102620.73;1814309;79;26211;-79
2021/04/18 05:40:26;;;;;;;6.53;3.03;;;;;;;2.16;100.00;102616.63;1816934;79;26243;-79
2021/04/18 05:42:56;;;;;;;5.03;2.70;;;;;;;2.13;100.00;102619.23;1814381;79;26226;-78
2021/04/18 05:45:26;;;;;;;4.90;2.77;;;;;;;2.35;100.00;102613.88;1816845;79;26293;-79
2021/04/18 05:47:57;;;;;;;4.47;3.37;;;;;;;2.27;100.00;102603.30;1814169;79;26305;-78
2021/04/18 05:50:27;;;;;;;5.37;3.60;;;;;;;2.36;100.00;102603.20;1817097;79;26765;-78
2021/04/18 05:52:57;;;;;;;5.93;3.43;;;;;;;2.23;100.00;102608.83;1814211;79;26254;-77
2021/04/18 05:55:29;;;;;;;4.47;3.63;;;;;;;2.39;100.00;102609.71;1816894;79;26364;-78
2021/04/18 05:57:59;;;;;;;4.53;3.37;;;;;;;2.53;100.00;102612.95;1814367;79;26222;-78
2021/04/18 06:00:29;;;;;;;7.17;3.17;;;;;;;2.73;100.00;102609.98;1816897;79;26284;-79
2021/04/18 06:02:58;;;;;;;5.47;3.50;;;;;;;2.70;100.00;102609.83;1814142;79;26242;-79
2021/04/18 06:05:28;;;;;;;4.30;2.43;;;;;;;2.70;100.00;102611.72;1816962;79;26828;-79
2021/04/18 06:07:58;;;;;;;8.23;3.57;;;;;;;2.97;100.00;102608.80;1814255;79;26665;-79
2021/04/18 06:10:28;;;;;;;4.80;3.20;;;;;;;3.22;100.00;102606.05;1816784;79;26222;-80
2021/04/18 06:12:58;;;;;;;5.73;3.30;;;;;;;3.02;100.00;102609.08;1814267;79;26257;-79
2021/04/18 06:15:29;;;;;;;4.67;3.73;;;;;;;2.94;100.00;102612.80;1816801;79;26226;-79
2021/04/18 06:17:59;;;;;;;5.60;3.90;;;;;;;2.95;100.00;102613.66;1814274;79;26301;-78
2021/04/18 06:20:29;;;;;;;4.70;3.57;;;;;;;2.90;100.00;102612.85;1816877;79;26235;-79
2021/04/18 06:22:59;;;;;;;5.57;3.90;;;;;;;3.19;100.00;102605.92;1814364;79;26312;-79
2021/04/18 06:25:29;;;;;;;4.60;3.67;;;;;;;3.36;100.00;102606.53;1816990;79;26349;-79
2021/04/18 06:27:58;;;;;;;5.80;4.00;;;;;;;3.55;100.00;102608.61;1814310;79;26610;-79
2021/04/18 06:30:29;;;;;;;8.03;4.47;;;;;;;3.63;100.00;102607.14;1816795;79;26218;-79
2021/04/18 06:32:59;;;;;;;5.30;4.60;;;;;;;3.79;100.00;102606.53;1814338;79;26289;-79
2021/04/18 06:35:29;;;;;;;7.70;4.87;;;;;;;4.15;100.00;102607.23;1816869;79;26226;-79
2021/04/18 06:37:58;;;;;;;6.63;4.50;;;;;;;4.27;100.00;102608.41;1814323;79;26316;-79
2021/04/18 06:40:28;;;;;;;6.03;4.37;;;;;;;4.39;100.00;102606.80;1816929;79;26243;-78
2021/04/18 06:43:01;;;;;;;6.23;3.93;;;;;;;4.44;100.00;102606.20;1814244;79;26280;-79
2021/04/18 06:45:31;;;;;;;6.60;4.07;;;;;;;4.53;100.00;102604.98;1816897;79;26333;-79
2021/04/18 06:48:02;;;;;;;6.40;4.87;;;;;;;4.66;100.00;102604.21;1814175;79;26308;-79
2021/04/18 06:50:33;;;;;;;6.27;4.37;;;;;;;4.88;100.00;102598.90;1816927;79;26321;-79
2021/04/18 06:53:03;;;;;;;5.97;4.63;;;;;;;5.01;100.00;102602.56;1814185;79;26321;-79
2021/04/18 06:55:33;;;;;;;8.10;6.03;;;;;;;5.17;100.00;102596.39;1816961;79;26297;-80
2021/04/18 06:58:03;;;;;;;6.47;4.73;;;;;;;5.25;100.00;102592.06;1816939;79;26263;-79
2021/04/18 07:00:33;;;;;;;7.60;4.70;;;;;;;5.35;100.00;102586.45;1814164;79;26237;-79
2021/04/18 07:03:14;;;;;;;7.13;4.60;;;;;;;5.42;100.00;102584.59;1816830;79;26338;-79
2021/04/18 07:05:46;;;;;;;8.33;5.17;;;;;;;5.59;100.00;102577.29;1814193;79;26281;-79
2021/04/18 07:08:27;;;;;;;7.63;4.80;;;;;;;5.84;100.00;102583.36;1816784;79;26298;-79
2021/04/18 07:11:13;;;;;;;7.73;4.97;;;;;;;5.95;100.00;102579.13;1814180;79;26226;-79
2021/04/18 07:13:45;;;;;;;5.93;4.70;;;;;;;6.19;100.00;102572.13;1817202;79;26255;-79
2021/04/18 07:16:26;;;;;;;8.43;5.23;;;;;;;6.40;100.00;102569.97;1814163;79;26222;-79
2021/04/18 07:18:58;;;;;;;8.20;4.93;;;;;;;6.62;100.00;102569.17;1816767;79;26630;-79
2021/04/18 07:21:45;;;;;;;6.17;4.00;;;;;;;6.94;100.00;102557.66;1814259;79;27057;-79
2021/04/18 07:24:15;;;;;;;7.57;4.80;;;;;;;7.08;100.00;102559.30;1816826;79;26336;-79
2021/04/18 07:26:56;;;;;;;6.00;4.70;;;;;;;7.10;100.00;102560.48;1814358;79;26226;-78
2021/04/18 07:29:27;;;;;;;7.90;4.30;;;;;;;7.24;100.00;102565.69;1816731;79;26662;-77
2021/04/18 07:31:59;;;;;;;12.07;5.33;;;;;;;7.31;100.00;102558.23;1814379;79;26693;-78
2021/04/18 07:34:36;;;;;;;7.77;5.17;;;;;;;7.32;100.00;102553.52;1816773;79;26744;-77
2021/04/18 07:37:11;;;;;;;7.93;4.90;;;;;;;7.25;100.00;102564.63;1814226;79;26296;-77
2021/04/18 07:39:53;;;;;;;6.80;4.97;;;;;;;7.35;100.00;102556.39;1816698;79;26292;-75
2021/04/18 07:42:35;;;;;;;9.20;5.30;;;;;;;7.74;100.00;102557.50;1816718;79;26250;-76
2021/04/18 07:45:08;;;;;;;9.53;4.90;;;;;;;7.90;100.00;102545.02;1814194;79;26222;-76
2021/04/18 07:47:40;;;;;;;6.77;4.90;;;;;;;8.18;100.00;102542.61;1816984;79;26387;-77
2021/04/18 07:50:13;;;;;;;7.77;4.73;;;;;;;8.21;100.00;102547.72;1814293;79;26234;-76
2021/04/18 07:52:47;;;;;;;7.03;4.87;;;;;;;8.29;100.00;102548.83;1816729;79;26251;-78
2021/04/18 07:55:19;;;;;;;7.07;4.43;;;;;;;8.41;100.00;102548.37;1814218;79;26300;-76
2021/04/18 07:57:51;;;;;;;6.60;4.47;;;;;;;8.69;100.00;102546.45;1816811;79;26667;-78
2021/04/18 08:00:24;;;;;;;10.30;5.67;;;;;;;8.90;100.00;102545.97;1814286;79;26222;-78
2021/04/18 08:02:55;;;;;;;8.33;4.93;;;;;;;9.01;100.00;102549.89;1816732;79;26321;-76
2021/04/18 08:05:27;;;;;;;8.80;5.43;;;;;;;9.27;100.00;102546.77;1814158;79;26312;-77
2021/04/18 08:08:06;;;;;;;7.47;5.37;;;;;;;9.01;100.00;102550.74;1817158;79;26738;-78
2021/04/18 08:10:37;;;;;;;9.70;5.50;;;;;;;9.02;100.00;102542.74;1814314;79;26331;-78
2021/04/18 08:13:13;;;;;;;8.60;5.63;;;;;;;9.24;100.00;102552.75;1816721;79;26295;-76
2021/04/18 08:15:45;;;;;;;8.77;6.17;;;;;;;9.38;100.00;102543.17;1814150;79;26221;-75
2021/04/18 08:18:16;;;;;;;11.17;6.03;;;;;;;9.43;100.00;102537.77;1820383;77;26388;-75
2021/04/18 08:20:48;;;;;;;9.17;6.23;;;;;;;9.57;100.00;102538.41;1814320;79;26689;-77
2021/04/18 08:23:18;;;;;;;8.50;6.00;;;;;;;9.74;100.00;102539.95;1816893;79;26702;-77
2021/04/18 08:26:11;;;;;;;11.53;6.73;;;;;;;9.92;100.00;102532.93;1814360;79;26262;-77
2021/04/18 08:29:13;;;;;;;9.47;5.80;;;;;;;9.84;100.00;102536.88;1816900;79;26242;-78
2021/04/18 08:32:07;;;;;;;11.87;6.37;;;;;;;9.52;100.00;102533.58;1814275;79;26327;-79
2021/04/18 08:34:42;;;;;;;9.20;5.93;;;;;;;9.67;100.00;102537.27;1816754;79;26277;-78
2021/04/18 08:37:18;;;;;;;10.70;6.23;;;;;;;10.10;100.00;102527.24;1814207;79;26300;-78
2021/04/18 08:39:49;;;;;;;9.73;6.27;;;;;;;10.17;100.00;102524.39;1816715;79;26359;-78
2021/04/18 08:42:29;;;;;;;10.40;6.67;;;;;;;10.35;100.00;102530.67;1814132;79;26690;-77
2021/04/18 08:44:59;;;;;;;9.37;6.37;;;;;;;10.30;100.00;102527.78;1816898;79;26293;-76
2021/04/18 08:47:31;;;;;;;7.73;6.30;;;;;;;10.59;100.00;102527.85;1814183;79;26758;-79
2021/04/18 08:50:10;;;;;;;11.23;7.40;;;;;;;11.03;100.00;102529.06;1816801;79;26329;-79
2021/04/18 08:52:40;;;;;;;9.80;6.77;;;;;;;10.96;100.00;102531.97;1814253;79;26321;-79
2021/04/18 08:55:14;;;;;;;7.97;6.10;;;;;;;11.07;100.00;102526.09;1816690;79;26288;-77
2021/04/18 08:57:44;;;;;;;8.30;6.43;;;;;;;11.14;100.00;102529.55;1814259;79;26226;-77
2021/04/18 09:00:16;;;;;;;10.30;7.50;;;;;;;10.74;100.00;102529.02;1816787;78;26218;-78
2021/04/18 09:02:57;;;;;;;10.77;6.83;;;;;;;11.15;100.00;102520.12;1814151;79;26324;-79
2021/04/18 09:05:27;;;;;;;10.10;7.00;;;;;;;11.03;100.00;102529.06;1816648;78;26317;-79
2021/04/18 09:08:05;;;;;;;11.50;7.27;;;;;;;10.93;100.00;102529.16;1814265;79;26263;-79
2021/04/18 09:10:38;;;;;;;9.17;6.73;;;;;;;10.89;100.00;102532.67;1816962;78;26234;-79
2021/04/18 09:13:06;;;;;;;10.33;6.93;;;;;;;10.89;100.00;102537.69;1816967;78;26339;-79
2021/04/18 09:15:38;;;;;;;13.63;7.60;;;;;;;11.02;100.00;102525.98;1814172;79;26211;-78
2021/04/18 09:18:10;;;;;;;10.97;7.70;;;;;;;10.90;100.00;102530.20;1814431;79;26222;-79
2021/04/18 09:20:42;;;;;;;8.40;6.97;;;;;;;11.39;100.00;102528.65;1816884;79;26339;-79
2021/04/18 09:23:11;;;;;;;12.00;6.80;;;;;;;11.45;100.00;102519.86;1814488;79;26207;-79
2021/04/18 09:25:41;;;;;;;9.77;6.63;;;;;;;11.62;100.00;102518.79;1816648;79;26300;-79
2021/04/18 09:28:15;;;;;;;10.50;6.50;;;;;;;11.63;100.00;102522.42;1814169;79;26207;-78
2021/04/18 09:30:45;;;;;;;8.47;6.60;;;;;;;11.19;100.00;102523.55;1816725;79;26223;-79
2021/04/18 09:33:17;;;;;;;9.30;6.63;;;;;;;11.45;100.00;102522.09;1814217;79;26242;-79
2021/04/18 09:35:55;;;;;;;8.30;6.43;;;;;;;11.86;100.00;102514.77;1816726;79;26273;-81
2021/04/18 09:38:25;;;;;;;7.93;6.67;;;;;;;11.94;100.00;102510.70;1814188;79;26650;-79
2021/04/18 09:40:54;;;;;;;8.93;6.77;;;;;;;11.70;100.00;102511.41;1816659;79;26740;-78
2021/04/18 09:43:25;;;;;;;8.43;6.30;;;;;;;12.45;100.00;102508.72;1814171;79;26230;-78
2021/04/18 09:46:01;;;;;;;10.40;6.27;;;;;;;12.27;100.00;102508.45;1816852;79;26222;-78
2021/04/18 09:48:32;;;;;;;8.20;6.57;;;;;;;12.53;100.00;102512.45;1814217;79;26358;-78
2021/04/18 09:51:04;;;;;;;9.07;6.33;;;;;;;11.98;100.00;102511.89;1816903;79;26230;-78
2021/04/18 09:53:35;;;;;;;10.17;5.77;;;;;;;12.06;100.00;102509.25;1814118;79;26222;-78
2021/04/18 09:56:08;;;;;;;6.13;4.43;;;;;;;11.74;100.00;102518.19;1816778;79;26250;-78
2021/04/18 09:58:40;;;;;;;8.30;5.07;;;;;;;11.57;100.00;102517.84;1816968;79;26305;-78
2021/04/18 10:01:23;;;;;;;9.70;5.67;;;;;;;12.28;100.00;102517.08;1814248;79;26273;-78
2021/04/18 10:03:53;;;;;;;7.93;5.13;;;;;;;12.36;100.00;102510.25;1816693;79;26327;-78
2021/04/18 10:06:23;;;;;;;7.67;5.20;;;;;;;12.23;100.00;102511.45;1814260;78;26227;-78
2021/04/18 10:08:57;;;;;;;5.83;4.80;;;;;;;12.59;100.00;102501.09;1816872;79;26278;-77
2021/04/18 10:11:27;;;;;;;6.97;4.63;;;;;;;12.63;100.00;102499.47;1814234;79;26226;-77
2021/04/18 10:13:59;;;;;;;9.03;4.90;;;;;;;12.72;100.00;102502.10;1816835;79;26222;-77
2021/04/18 10:16:40;;;;;;;9.60;5.30;;;;;;;12.45;100.00;102494.20;1814261;79;26669;-77
2021/04/18 10:19:14;;;;;;;4.67;3.33;;;;;;;12.04;100.00;102498.89;1816892;79;26339;-77
2021/04/18 10:21:45;;;;;;;5.77;4.30;;;;;;;12.48;100.00;102497.89;1814369;79;26242;-77
2021/04/18 10:24:34;;;;;;;5.97;4.20;;;;;;;12.03;97.39;102495.80;1816820;79;26651;-77
2021/04/18 10:27:06;;;;;;;6.73;4.63;;;;;;;12.60;100.00;102490.23;1814277;79;26250;-77
2021/04/18 10:29:37;;;;;;;5.77;3.67;;;;;;;12.81;98.74;102490.48;1816892;79;26772;-77
2021/04/18 10:32:10;;;;;;;7.13;4.70;;;;;;;12.50;96.45;102490.64;1814199;79;26680;-82
2021/04/18 10:34:40;;;;;;;5.87;4.10;;;;;;;12.36;94.14;102496.31;1816898;79;26394;-80
2021/04/18 10:37:10;;;;;;;8.83;3.63;;;;;;;13.01;100.00;102490.72;1814330;79;26469;-79
2021/04/18 10:39:40;;;;;;;4.93;3.90;;;;;;;12.98;90.71;102485.13;1816745;79;26327;-78
2021/04/18 10:42:11;;;;;;;7.17;3.63;;;;;;;12.75;91.58;102482.60;1814183;79;26788;-79
2021/04/18 10:44:41;;;;;;;5.00;3.37;;;;;;;12.76;93.62;102487.92;1816932;79;26294;-78
2021/04/18 10:47:15;;;;;;;6.57;3.80;;;;;;;12.92;91.46;102483.95;1814252;79;26685;-78
2021/04/18 10:49:45;;;;;;;4.67;3.50;;;;;;;12.84;92.53;102480.20;1816560;78;26650;-79
2021/04/18 10:52:15;;;;;;;6.00;2.83;;;;;;;12.67;89.01;102476.94;1814283;79;26219;-79
2021/04/18 10:54:44;;;;;;;5.37;3.50;;;;;;;12.76;87.28;102482.35;1816703;79;26300;-79
2021/04/18 10:57:14;;;;;;;4.03;3.23;;;;;;;13.05;89.39;102477.96;1814194;79;26303;-79
2021/04/18 10:59:44;;;;;;;3.53;3.23;;;;;;;13.02;84.66;102479.86;1816920;79;26222;-79
2021/04/18 11:02:14;;;;;;;4.13;3.03;;;;;;;12.91;88.45;102476.67;1814239;79;26745;-80
2021/04/18 11:04:44;;;;;;;5.70;3.27;;;;;;;12.39;87.46;102466.53;1816788;79;26756;-78
2021/04/18 11:07:14;;;;;;;5.13;3.20;;;;;;;12.88;91.30;102466.05;1814192;78;26355;-80
2021/04/18 11:09:44;;;;;;;5.17;2.90;;;;;;;12.87;80.22;102462.96;1817021;79;26322;-79
2021/04/18 11:12:19;;;;;;;4.20;2.83;;;;;;;13.14;88.70;102457.70;1814215;79;26237;-77
2021/04/18 11:14:49;;;;;;;5.40;3.00;;;;;;;13.27;76.53;102455.04;1816826;79;26222;-78
2021/04/18 11:17:20;;;;;;;6.43;3.20;;;;;;;12.70;83.92;102453.28;1814417;79;26226;-77
2021/04/18 11:19:50;;;;;;;4.40;2.87;;;;;;;12.98;80.79;102445.22;1816776;79;26229;-78
2021/04/18 11:22:21;;;;;;;4.00;3.10;;;;;;;12.88;81.54;102452.11;1814293;79;26222;-78
2021/04/18 11:24:51;;;;;;;4.87;3.20;;;;;;;13.15;84.68;102440.41;1816877;79;26654;-77
2021/04/18 11:27:21;;;;;;;6.57;3.87;;;;;;;13.04;80.77;102435.27;1814243;79;26287;-77
2021/04/18 11:29:51;;;;;;;3.73;3.20;;;;;;;13.17;82.81;102439.06;1816837;79;26775;-77
2021/04/18 11:32:21;;;;;;;4.97;2.60;;;;;;;12.97;79.00;102436.55;1814275;79;26732;-78
2021/04/18 11:34:52;;;;;;;4.37;2.97;;;;;;;13.34;78.35;102432.52;1816795;79;26253;-77
2021/04/18 11:37:22;;;;;;;5.83;2.87;;;;;;;13.04;79.37;102435.81;1814192;79;26288;-77
2021/04/18 11:39:53;;;;;;;5.63;3.30;;;;;;;13.10;76.23;102431.44;1816951;79;26225;-77
2021/04/18 11:42:23;;;;;;;3.20;2.60;;;;;;;12.84;69.68;102436.97;1814300;79;26234;-77
2021/04/18 11:44:53;;;;;;;4.87;2.67;;;;;;;12.72;75.14;102434.34;1816922;79;26226;-77